createdAt,value
2019-05-03T00:01:02.363Z,91.50
2019-05-03T00:03:32.030Z,91.60
2019-05-03T00:06:08.975Z,91.50
2019-05-03T00:08:37.853Z,91.60
2019-05-03T00:11:26.029Z,91.80
2019-05-03T00:13:54.776Z,91.90
2019-05-03T00:16:32.550Z,91.70
2019-05-03T00:19:03.242Z,91.50
2019-05-03T00:21:52.594Z,91.40
2019-05-03T00:24:22.591Z,91.50
2019-05-03T00:26:51.890Z,91.30
2019-05-03T00:29:22.534Z,91.20
2019-05-03T00:31:51.663Z,91.20
2019-05-03T00:34:22.262Z,91.20
2019-05-03T00:36:57.650Z,91.20
2019-05-03T00:39:47.261Z,91.50
2019-05-03T00:42:16.046Z,91.40
2019-05-03T00:44:45.841Z,91.20
2019-05-03T00:47:13.816Z,91.20
2019-05-03T00:49:44.096Z,91.00
2019-05-03T00:52:12.847Z,90.90
2019-05-03T00:54:42.360Z,90.70
2019-05-03T00:57:12.079Z,91.00
2019-05-03T00:59:41.978Z,90.50
2019-05-03T01:02:11.874Z,90.60
2019-05-03T01:04:42.560Z,90.40
2019-05-03T01:07:11.747Z,90.50
2019-05-03T01:09:42.305Z,90.20
2019-05-03T01:12:12.617Z,90.20
2019-05-03T01:14:43.312Z,90.20
2019-05-03T01:17:13.254Z,90.20
2019-05-03T01:19:42.628Z,90.10
2019-05-03T01:22:11.896Z,90.00
2019-05-03T01:24:42.675Z,89.70
2019-05-03T01:27:12.423Z,89.60
2019-05-03T01:29:42.466Z,89.20
2019-05-03T01:32:11.561Z,88.90
2019-05-03T01:34:41.681Z,87.20
2019-05-03T01:37:11.935Z,86.00
2019-05-03T01:39:42.131Z,84.50
2019-05-03T01:42:11.939Z,83.50
2019-05-03T01:44:39.944Z,83.40
2019-05-03T01:47:11.593Z,83.10
2019-05-03T01:49:42.673Z,83.80
2019-05-03T01:52:13.046Z,83.30
2019-05-03T01:54:42.709Z,83.30
2019-05-03T01:57:11.638Z,83.50
2019-05-03T01:59:42.453Z,83.40
2019-05-03T02:05:07.862Z,83.10
2019-05-03T02:07:36.644Z,83.00
2019-05-03T02:10:06.943Z,82.60
2019-05-03T02:12:35.665Z,82.90
2019-05-03T02:15:06.773Z,83.20
2019-05-03T02:17:35.522Z,83.20
2019-05-03T02:20:05.730Z,83.80
2019-05-03T02:22:34.459Z,83.70
2019-05-03T02:25:03.456Z,82.10
2019-05-03T02:27:32.607Z,82.00
2019-05-03T02:30:03.051Z,82.20
2019-05-03T02:32:33.238Z,82.30
2019-05-03T02:35:02.856Z,82.30
2019-05-03T02:37:33.014Z,82.30
2019-05-03T02:40:04.331Z,82.60
2019-05-03T02:42:35.291Z,82.40
2019-05-03T02:45:05.921Z,82.00
2019-05-03T02:47:35.788Z,81.50
2019-05-03T02:50:08.334Z,81.90
2019-05-03T02:52:37.724Z,81.10
2019-05-03T02:55:30.416Z,81.40
2019-05-03T02:57:59.234Z,80.00
2019-05-03T03:00:50.010Z,81.90
2019-05-03T03:03:19.521Z,80.70
2019-05-03T03:05:48.597Z,81.90
2019-05-03T03:08:18.353Z,82.20
2019-05-03T03:10:46.428Z,82.10
2019-05-03T03:13:16.453Z,81.70
2019-05-03T03:15:46.457Z,82.10
2019-05-03T03:18:16.749Z,81.90
2019-05-03T03:20:51.857Z,82.00
2019-05-03T03:23:26.096Z,81.60
2019-05-03T03:25:56.859Z,81.20
2019-05-03T03:28:27.272Z,81.80
2019-05-03T03:31:27.766Z,81.90
2019-05-03T03:34:02.448Z,80.00
2019-05-03T03:36:50.539Z,80.70
2019-05-03T03:39:06.071Z,80.90
2019-05-03T03:41:35.330Z,80.90
2019-05-03T03:44:10.805Z,80.90
2019-05-03T03:46:41.641Z,79.40
2019-05-03T03:49:10.990Z,80.60
2019-05-03T03:51:40.900Z,80.90
2019-05-03T03:54:15.359Z,80.80
2019-05-03T03:56:58.412Z,81.10
2019-05-03T03:59:15.471Z,80.30
2019-05-03T04:01:45.681Z,80.90
2019-05-03T04:04:16.093Z,81.60
2019-05-03T04:06:46.558Z,81.00
2019-05-03T04:09:36.528Z,80.90
2019-05-03T04:12:10.440Z,80.60
2019-05-03T04:14:46.847Z,79.70
2019-05-03T04:17:17.817Z,80.30
2019-05-03T04:19:48.498Z,79.80
2019-05-03T04:22:17.410Z,79.60
2019-05-03T04:24:46.215Z,78.60
2019-05-03T04:27:36.422Z,79.50
2019-05-03T04:30:06.863Z,78.60
2019-05-03T04:32:36.043Z,78.90
2019-05-03T04:35:05.621Z,78.50
2019-05-03T04:37:36.211Z,77.20
2019-05-03T04:40:06.585Z,75.60
2019-05-03T04:42:35.826Z,75.70
2019-05-03T04:45:06.067Z,74.50
2019-05-03T04:47:35.737Z,74.50
2019-05-03T04:50:05.566Z,73.50
2019-05-03T04:52:36.096Z,73.90
2019-05-03T04:55:06.904Z,73.80
2019-05-03T04:57:42.081Z,73.50
2019-05-03T05:00:11.394Z,73.00
2019-05-03T05:02:39.992Z,73.60
2019-05-03T05:05:08.981Z,74.90
2019-05-03T05:07:37.745Z,74.70
2019-05-03T05:10:10.416Z,74.10
2019-05-03T05:12:39.236Z,74.20
2019-05-03T05:15:08.295Z,76.30
2019-05-03T05:17:45.974Z,75.10
2019-05-03T05:20:16.566Z,76.00
2019-05-03T05:22:45.507Z,75.00
2019-05-03T05:25:16.586Z,75.20
2019-05-03T05:27:59.306Z,75.10
2019-05-03T05:30:30.511Z,74.10
2019-05-03T05:33:01.178Z,74.70
2019-05-03T05:35:29.634Z,75.00
2019-05-03T05:37:58.458Z,76.30
2019-05-03T05:40:27.339Z,78.30
2019-05-03T05:42:56.198Z,78.70
2019-05-03T05:45:26.887Z,76.50
2019-05-03T05:50:45.193Z,72.80
2019-05-03T05:53:15.234Z,71.50
2019-05-03T05:55:45.763Z,72.70
2019-05-03T05:58:34.827Z,71.00
2019-05-03T06:01:06.544Z,73.30
2019-05-03T06:03:35.611Z,72.10
2019-05-03T06:06:06.230Z,72.10
2019-05-03T06:08:44.553Z,73.20
2019-05-03T06:11:14.914Z,72.80
2019-05-03T06:13:48.164Z,74.20
2019-05-03T06:16:21.449Z,72.50
2019-05-03T06:18:51.928Z,71.70
2019-05-03T06:21:25.528Z,71.40
2019-05-03T06:23:58.824Z,69.80
2019-05-03T06:26:38.509Z,67.90
2019-05-03T06:29:07.940Z,66.40
2019-05-03T06:31:55.058Z,67.30
2019-05-03T06:34:25.230Z,67.60
2019-05-03T06:36:55.801Z,66.90
2019-05-03T06:39:24.994Z,66.50
2019-05-03T06:41:55.072Z,66.20
2019-05-03T06:44:28.256Z,66.90
2019-05-03T06:46:55.258Z,64.30
2019-05-03T06:49:25.556Z,64.90
2019-05-03T06:51:54.735Z,65.00
2019-05-03T06:54:26.962Z,65.20
2019-05-03T06:56:55.475Z,65.60
2019-05-03T06:59:29.065Z,65.40
2019-05-03T07:02:14.917Z,67.50
2019-05-03T07:04:51.646Z,72.10
2019-05-03T07:07:28.135Z,75.30
2019-05-03T07:10:01.651Z,76.00
2019-05-03T07:12:35.307Z,73.30
2019-05-03T07:15:02.526Z,75.10
2019-05-03T07:17:31.344Z,75.60
2019-05-03T07:20:00.119Z,78.50
2019-05-03T07:22:28.937Z,80.00
2019-05-03T07:24:57.714Z,79.30
2019-05-03T07:27:26.577Z,80.30
2019-05-03T07:29:55.666Z,77.70
2019-05-03T07:32:24.800Z,77.30
2019-05-03T07:34:55.591Z,76.10
2019-05-03T07:37:24.729Z,76.80
2019-05-03T07:39:55.495Z,72.90
2019-05-03T07:42:25.617Z,71.90
2019-05-03T07:44:55.966Z,70.20
2019-05-03T07:47:24.936Z,66.90
2019-05-03T07:49:54.669Z,67.90
2019-05-03T07:52:22.717Z,67.70
2019-05-03T07:54:51.543Z,67.00
2019-05-03T07:57:31.278Z,68.10
2019-05-03T08:00:00.164Z,69.40
2019-05-03T08:02:28.967Z,73.10
2019-05-03T08:04:57.707Z,78.50
2019-05-03T08:07:28.371Z,81.30
2019-05-03T08:09:58.922Z,81.20
2019-05-03T08:12:27.723Z,80.90
2019-05-03T08:14:56.584Z,80.50
2019-05-03T08:17:25.672Z,77.50
2019-05-03T08:19:55.678Z,75.40
2019-05-03T08:22:25.511Z,69.80
2019-05-03T08:24:55.726Z,70.10
2019-05-03T08:27:25.219Z,65.70
2019-05-03T08:29:55.887Z,67.80
2019-05-03T08:32:27.128Z,70.00
2019-05-03T08:35:15.320Z,66.30
2019-05-03T08:37:46.122Z,67.70
2019-05-03T08:40:15.661Z,64.40
2019-05-03T08:42:44.586Z,62.80
2019-05-03T08:45:14.820Z,62.00
2019-05-03T08:47:45.079Z,61.60
2019-05-03T08:50:19.001Z,61.70
2019-05-03T08:52:45.175Z,61.80
2019-05-03T08:55:15.907Z,61.30
2019-05-03T08:57:45.002Z,61.20
2019-05-03T09:00:15.659Z,62.80
2019-05-03T09:02:44.839Z,63.10
2019-05-03T09:05:15.773Z,63.70
2019-05-03T09:07:44.818Z,60.40
2019-05-03T09:10:18.572Z,61.20
2019-05-03T09:13:07.156Z,60.60
2019-05-03T09:15:37.578Z,61.50
2019-05-03T09:18:06.502Z,61.80
2019-05-03T09:20:36.341Z,62.60
2019-05-03T09:23:05.617Z,62.50
2019-05-03T09:25:35.530Z,63.40
2019-05-03T09:28:04.989Z,60.10
2019-05-03T09:30:35.715Z,60.30
2019-05-03T09:33:08.439Z,58.80
2019-05-03T09:35:36.007Z,58.80
2019-05-03T09:38:05.918Z,63.20
2019-05-03T09:40:35.362Z,70.20
2019-05-03T09:43:04.666Z,71.70
2019-05-03T09:45:35.511Z,69.90
2019-05-03T09:48:05.710Z,69.10
2019-05-03T09:50:35.934Z,66.20
2019-05-03T09:53:05.451Z,64.30
2019-05-03T09:55:36.569Z,64.20
2019-05-03T09:58:05.684Z,60.80
2019-05-03T10:00:34.686Z,61.70
2019-05-03T10:03:05.507Z,63.70
2019-05-03T10:05:35.088Z,64.90
2019-05-03T10:08:05.180Z,65.00
2019-05-03T10:10:53.228Z,64.50
2019-05-03T10:13:23.860Z,62.80
2019-05-03T10:15:54.946Z,60.20
2019-05-03T10:18:25.263Z,59.30
2019-05-03T10:20:55.902Z,61.50
2019-05-03T10:23:33.030Z,60.40
2019-05-03T10:26:01.793Z,62.00
2019-05-03T10:28:30.741Z,61.00
2019-05-03T10:31:04.956Z,62.70
2019-05-03T10:33:35.562Z,63.00
2019-05-03T10:36:05.470Z,62.90
2019-05-03T10:38:34.513Z,63.70
2019-05-03T10:41:05.831Z,59.90
2019-05-03T10:43:35.511Z,59.90
2019-05-03T10:46:05.378Z,60.00
2019-05-03T10:48:36.148Z,61.80
2019-05-03T10:51:04.891Z,63.10
2019-05-03T10:53:41.667Z,61.90
2019-05-03T10:56:24.502Z,61.60
2019-05-03T10:58:56.464Z,61.10
2019-05-03T11:01:45.235Z,62.30
2019-05-03T11:04:14.736Z,62.70
2019-05-03T11:06:45.731Z,61.40
2019-05-03T11:09:15.237Z,60.60
2019-05-03T11:11:45.638Z,60.60
2019-05-03T11:14:15.033Z,58.80
2019-05-03T11:16:46.806Z,58.60
2019-05-03T11:19:15.618Z,57.30
2019-05-03T11:21:45.539Z,55.30
2019-05-03T11:24:16.060Z,52.40
2019-05-03T11:26:46.485Z,52.50
2019-05-03T11:29:15.787Z,54.80
2019-05-03T11:31:55.517Z,55.10
2019-05-03T11:34:42.370Z,54.70
2019-05-03T11:37:14.517Z,51.50
2019-05-03T11:39:45.095Z,56.00
2019-05-03T11:42:15.314Z,58.80
2019-05-03T11:44:44.662Z,58.20
2019-05-03T11:47:14.989Z,58.30
2019-05-03T11:49:45.382Z,57.60
2019-05-03T11:52:15.929Z,58.90
2019-05-03T11:54:45.411Z,60.90
2019-05-03T11:57:22.020Z,62.30
2019-05-03T11:59:50.766Z,60.60
2019-05-03T12:02:21.257Z,60.50
2019-05-03T12:04:50.038Z,63.80
2019-05-03T12:07:39.774Z,61.30
2019-05-03T12:10:17.174Z,60.80
2019-05-03T12:12:46.393Z,59.80
2019-05-03T12:15:17.428Z,60.20
2019-05-03T12:17:54.386Z,60.90
2019-05-03T12:20:19.667Z,58.50
2019-05-03T12:22:49.214Z,59.10
2019-05-03T12:25:19.075Z,58.20
2019-05-03T12:27:47.315Z,58.70
2019-05-03T12:30:17.452Z,59.60
2019-05-03T12:32:46.338Z,59.50
2019-05-03T12:35:15.491Z,58.40
2019-05-03T12:37:44.429Z,59.20
2019-05-03T12:40:14.995Z,59.00
2019-05-03T12:42:45.458Z,59.20
2019-05-03T12:45:15.221Z,58.50
2019-05-03T12:47:45.261Z,58.90
2019-05-03T12:50:15.607Z,60.70
2019-05-03T12:52:50.476Z,61.70
2019-05-03T12:55:15.355Z,59.30
2019-05-03T12:57:45.760Z,60.70
2019-05-03T13:00:36.466Z,60.40
2019-05-03T13:03:10.704Z,59.90
2019-05-03T13:05:41.397Z,58.40
2019-05-03T13:08:36.712Z,58.80
2019-05-03T13:11:06.216Z,55.00
2019-05-03T13:13:35.861Z,57.70
2019-05-03T13:16:05.581Z,58.30
2019-05-03T13:18:35.393Z,58.60
2019-05-03T13:21:05.792Z,60.00
2019-05-03T13:23:35.659Z,59.70
2019-05-03T13:26:05.550Z,61.00
2019-05-03T13:28:36.928Z,61.20
2019-05-03T13:31:06.126Z,63.10
2019-05-03T13:33:35.375Z,61.50
2019-05-03T13:36:04.649Z,63.30
2019-05-03T13:38:34.920Z,61.10
2019-05-03T13:41:06.202Z,61.30
2019-05-03T13:43:34.834Z,62.00
2019-05-03T13:46:05.186Z,62.20
2019-05-03T13:48:42.614Z,61.80
2019-05-03T13:51:05.277Z,61.20
2019-05-03T13:53:34.850Z,62.60
2019-05-03T13:56:04.733Z,63.00
2019-05-03T13:58:36.018Z,62.70
2019-05-03T14:01:05.472Z,65.60
2019-05-03T14:03:35.275Z,67.20
2019-05-03T14:06:08.629Z,66.60
2019-05-03T14:08:36.616Z,68.10
2019-05-03T14:11:17.478Z,67.30
2019-05-03T14:13:46.223Z,67.80
2019-05-03T14:16:14.980Z,67.10
2019-05-03T14:18:45.683Z,65.30
2019-05-03T14:21:19.003Z,63.60
2019-05-03T14:24:05.862Z,64.10
2019-05-03T14:26:35.120Z,64.00
2019-05-03T14:29:05.684Z,63.70
2019-05-03T14:31:34.694Z,62.70
2019-05-03T14:34:05.796Z,63.00
2019-05-03T14:36:35.840Z,62.10
2019-05-03T14:39:09.539Z,60.60
2019-05-03T14:41:37.020Z,60.70
2019-05-03T14:44:05.854Z,60.60
2019-05-03T14:46:36.218Z,59.80
2019-05-03T14:49:05.782Z,60.00
2019-05-03T14:51:34.979Z,58.30
2019-05-03T14:54:05.530Z,58.10
2019-05-03T14:56:39.001Z,58.80
2019-05-03T14:59:29.305Z,57.00
2019-05-03T15:01:59.662Z,57.20
2019-05-03T15:04:28.406Z,56.40
2019-05-03T15:06:57.967Z,58.10
2019-05-03T15:09:26.978Z,57.50
2019-05-03T15:11:55.760Z,58.30
2019-05-03T15:14:25.135Z,59.20
2019-05-03T15:16:55.754Z,60.30
2019-05-03T15:19:25.350Z,60.80
2019-05-03T15:21:54.729Z,62.00
2019-05-03T15:24:25.200Z,62.60
2019-05-03T15:26:55.374Z,63.30
2019-05-03T15:29:24.698Z,62.90
2019-05-03T15:31:56.061Z,63.90
2019-05-03T15:34:24.686Z,62.30
2019-05-03T15:36:54.713Z,62.30
2019-05-03T15:39:23.662Z,63.70
2019-05-03T15:41:54.315Z,64.80
2019-05-03T15:44:36.775Z,65.40
2019-05-03T15:47:09.466Z,65.60
2019-05-03T15:49:37.777Z,66.40
2019-05-03T15:52:08.441Z,65.70
2019-05-03T15:54:38.405Z,66.20
2019-05-03T15:57:07.155Z,66.00
2019-05-03T15:59:36.032Z,66.70
2019-05-03T16:02:04.757Z,67.30
2019-05-03T16:04:35.564Z,66.70
2019-05-03T16:07:04.913Z,68.60
2019-05-03T16:09:35.235Z,70.30
2019-05-03T16:12:05.098Z,71.10
2019-05-03T16:14:35.039Z,71.50
2019-05-03T16:17:04.448Z,72.80
2019-05-03T16:19:35.321Z,72.90
2019-05-03T16:22:04.878Z,74.90
2019-05-03T16:24:35.411Z,72.20
2019-05-03T16:27:06.212Z,71.90
2019-05-03T16:29:35.174Z,72.70
2019-05-03T16:32:05.204Z,75.80
2019-05-03T16:34:36.085Z,75.60
2019-05-03T16:37:04.657Z,77.50
2019-05-03T16:39:35.359Z,76.90
2019-05-03T16:42:04.239Z,77.20
2019-05-03T16:44:35.020Z,77.70
2019-05-03T16:47:04.897Z,77.80
2019-05-03T16:49:35.263Z,77.60
2019-05-03T16:52:05.523Z,79.00
2019-05-03T16:54:34.976Z,76.50
2019-05-03T16:57:05.774Z,77.80
2019-05-03T16:59:35.258Z,78.20
2019-05-03T17:02:05.752Z,77.00
2019-05-03T17:04:42.194Z,77.10
2019-05-03T17:07:31.021Z,78.20
2019-05-03T17:10:01.414Z,77.80
2019-05-03T17:12:31.806Z,77.10
2019-05-03T17:15:00.544Z,75.50
2019-05-03T17:17:29.297Z,73.90
2019-05-03T17:19:58.134Z,73.80
2019-05-03T17:22:26.892Z,74.10
2019-05-03T17:24:55.715Z,75.90
2019-05-03T17:27:26.091Z,76.50
2019-05-03T17:29:56.695Z,79.20
2019-05-03T17:32:25.402Z,79.70
2019-05-03T17:34:54.903Z,76.80
2019-05-03T17:37:25.474Z,76.20
2019-05-03T17:40:09.516Z,76.70
2019-05-03T17:42:55.412Z,78.40
2019-05-03T17:45:31.562Z,78.40
2019-05-03T17:48:00.314Z,78.30
2019-05-03T17:50:30.646Z,79.30
2019-05-03T17:53:01.017Z,80.20
2019-05-03T17:55:46.106Z,81.30
2019-05-03T17:58:25.197Z,80.30
2019-05-03T18:00:58.089Z,79.70
2019-05-03T18:03:28.180Z,79.70
2019-05-03T18:06:01.403Z,80.10
2019-05-03T18:08:35.534Z,81.00
2019-05-03T18:11:05.946Z,80.90
2019-05-03T18:13:39.269Z,80.80
2019-05-03T18:16:11.089Z,78.70
2019-05-03T18:18:40.060Z,78.80
2019-05-03T18:21:08.801Z,81.00
2019-05-03T18:23:37.700Z,81.40
2019-05-03T18:26:06.419Z,80.30
2019-05-03T18:28:35.705Z,81.00
2019-05-03T18:31:05.775Z,80.10
2019-05-03T18:33:36.718Z,80.00
2019-05-03T18:36:05.699Z,79.50
2019-05-03T18:38:41.046Z,80.40
2019-05-03T18:41:10.370Z,80.40
2019-05-03T18:43:46.605Z,80.00
2019-05-03T18:46:24.519Z,79.90
2019-05-03T18:48:55.038Z,79.40
2019-05-03T18:51:25.220Z,79.30
2019-05-03T18:53:54.427Z,78.80
2019-05-03T18:56:25.030Z,77.80
2019-05-03T18:58:54.395Z,78.30
2019-05-03T19:01:25.173Z,77.60
2019-05-03T19:03:55.501Z,78.80
2019-05-03T19:06:25.886Z,79.30
2019-05-03T19:09:14.481Z,79.80
2019-05-03T19:11:44.606Z,80.60
2019-05-03T19:14:17.804Z,79.90
2019-05-03T19:16:56.726Z,79.40
2019-05-03T19:19:30.265Z,78.40
2019-05-03T19:21:59.107Z,78.40
2019-05-03T19:24:27.843Z,77.90
2019-05-03T19:26:57.702Z,78.50
2019-05-03T19:29:25.736Z,78.50
2019-05-03T19:31:55.229Z,78.50
2019-05-03T19:34:24.342Z,79.50
2019-05-03T19:36:54.781Z,79.30
2019-05-03T19:39:25.243Z,79.60
2019-05-03T19:41:55.322Z,80.00
2019-05-03T19:44:24.165Z,79.90
2019-05-03T19:46:52.962Z,81.10
2019-05-03T19:49:24.674Z,81.60
2019-05-03T19:51:52.137Z,81.60
2019-05-03T19:54:20.920Z,81.00
2019-05-03T19:56:49.666Z,81.80
2019-05-03T19:59:36.374Z,81.50
2019-05-03T20:02:06.744Z,82.00
2019-05-03T20:04:42.826Z,82.40
2019-05-03T20:07:15.907Z,81.70
2019-05-03T20:09:44.665Z,81.80
2019-05-03T20:12:15.141Z,80.40
2019-05-03T20:14:45.084Z,80.60
2019-05-03T20:17:14.834Z,80.10
2019-05-03T20:19:45.173Z,80.40
2019-05-03T20:22:15.149Z,80.70
2019-05-03T20:24:44.741Z,79.90
2019-05-03T20:27:15.126Z,79.80
2019-05-03T20:29:46.144Z,80.40
2019-05-03T20:32:15.883Z,79.50
2019-05-03T20:34:44.880Z,79.70
2019-05-03T20:37:14.717Z,80.60
2019-05-03T20:39:43.580Z,80.20
2019-05-03T20:42:15.361Z,80.00
2019-05-03T20:44:45.879Z,80.00
2019-05-03T20:47:16.294Z,80.40
2019-05-03T20:49:46.695Z,80.10
2019-05-03T20:52:15.445Z,80.20
2019-05-03T20:54:44.818Z,80.90
2019-05-03T20:57:14.679Z,81.40
2019-05-03T20:59:48.677Z,82.10
2019-05-03T21:02:15.328Z,82.10
2019-05-03T21:04:44.291Z,81.40
2019-05-03T21:07:15.145Z,81.00
2019-05-03T21:09:45.444Z,80.70
2019-05-03T21:12:14.908Z,80.90
2019-05-03T21:14:42.842Z,80.90
2019-05-03T21:17:14.943Z,80.40
2019-05-03T21:19:45.275Z,81.30
2019-05-03T21:22:15.673Z,81.10
2019-05-03T21:24:54.840Z,82.00
2019-05-03T21:27:24.449Z,81.90
2019-05-03T21:29:55.151Z,82.70
2019-05-03T21:32:25.081Z,82.00
2019-05-03T21:34:55.713Z,81.60
2019-05-03T21:37:24.590Z,81.50
2019-05-03T21:39:54.808Z,81.90
2019-05-03T21:42:23.829Z,81.70
2019-05-03T21:44:52.726Z,81.70
2019-05-03T21:47:24.620Z,81.40
2019-05-03T21:49:54.645Z,81.80
2019-05-03T21:52:24.948Z,81.80
2019-05-03T21:54:54.453Z,82.00
2019-05-03T21:57:25.273Z,82.50
2019-05-03T21:59:55.008Z,82.20
2019-05-03T22:02:24.650Z,82.30
2019-05-03T22:04:53.667Z,82.70
2019-05-03T22:07:22.418Z,82.30
2019-05-03T22:09:51.260Z,82.50
2019-05-03T22:12:19.950Z,82.90
2019-05-03T22:15:08.599Z,82.30
2019-05-03T22:17:58.879Z,82.60
2019-05-03T22:20:38.294Z,81.20
2019-05-03T22:23:11.644Z,82.10
2019-05-03T22:25:42.053Z,82.10
2019-05-03T22:28:10.815Z,81.80
2019-05-03T22:30:39.838Z,81.50
2019-05-03T22:33:08.594Z,81.50
2019-05-03T22:35:37.354Z,82.10
2019-05-03T22:38:06.570Z,81.80
2019-05-03T22:40:35.520Z,81.70
2019-05-03T22:43:04.388Z,82.30
2019-05-03T22:45:34.825Z,82.10
2019-05-03T22:48:05.257Z,81.60
2019-05-03T22:50:34.512Z,81.40
2019-05-03T22:53:05.399Z,82.40
2019-05-03T22:55:34.288Z,82.30
2019-05-03T22:58:04.999Z,83.10
2019-05-03T23:00:35.281Z,82.20
2019-05-03T23:03:03.912Z,82.20
2019-05-03T23:05:34.679Z,82.00
2019-05-03T23:08:05.412Z,81.80
2019-05-03T23:10:35.392Z,82.30
2019-05-03T23:13:05.020Z,82.10
2019-05-03T23:15:34.695Z,82.10
2019-05-03T23:18:04.940Z,81.40
2019-05-03T23:20:50.443Z,82.00
2019-05-03T23:23:26.843Z,82.10
2019-05-03T23:25:55.667Z,81.80
2019-05-03T23:28:24.891Z,81.60
2019-05-03T23:30:54.817Z,81.10
2019-05-03T23:33:22.794Z,80.20
2019-05-03T23:35:51.537Z,79.80
2019-05-03T23:38:20.382Z,81.50
2019-05-03T23:40:49.145Z,81.20
2019-05-03T23:43:17.961Z,82.00
2019-05-03T23:45:46.753Z,81.50
2019-05-03T23:48:15.548Z,81.60
2019-05-03T23:50:44.649Z,81.50
2019-05-03T23:53:15.307Z,81.40
2019-05-03T23:55:45.510Z,81.60
2019-05-03T23:58:14.204Z,81.50
